Time;durP1;ratioP1;P1;durP2;ratioP2;P2;SDS_P1;SDS_P2;PMS_P1;PMS_P2;Temp;Humidity;BMP_temperature;BMP_pressure;BME280_temperature;BME280_humidity;BME280_pressure;Samples;Min_cycle;Max_cycle;Signal;HPM_P1;HPM_P2
2022/11/23 00:02:15;;;;;;;10.07;5.53;;;;;;;0.44;100.00;95319.19;10412386;28;20219;-77
2022/11/23 00:07:15;;;;;;;10.03;5.77;;;;;;;0.33;100.00;95314.94;10412750;28;20188;-77
2022/11/23 00:12:16;;;;;;;10.63;6.17;;;;;;;0.20;100.00;95317.75;10371104;28;20219;-80
2022/11/23 00:17:16;;;;;;;11.20;6.43;;;;;;;0.15;100.00;95317.28;10387403;28;20190;-77
2022/11/23 00:22:18;;;;;;;11.20;6.10;;;;;;;0.31;100.00;95324.56;10371392;28;20617;-77
2022/11/23 00:27:18;;;;;;;14.63;6.07;;;;;;;0.30;100.00;95320.34;10371666;28;20243;-78
2022/11/23 00:32:19;;;;;;;10.93;5.93;;;;;;;0.52;100.00;95325.34;10386350;28;20735;-79
2022/11/23 00:37:20;;;;;;;11.43;6.37;;;;;;;0.61;100.00;95322.94;10369205;28;20226;-77
2022/11/23 00:42:20;;;;;;;10.97;5.57;;;;;;;0.68;100.00;95313.75;10353242;28;20221;-77
2022/11/23 00:47:20;;;;;;;10.90;6.43;;;;;;;0.57;100.00;95318.97;10370531;28;20200;-78
2022/11/23 00:52:21;;;;;;;10.90;5.90;;;;;;;0.47;100.00;95319.75;10368632;28;20204;-79
2022/11/23 00:57:22;;;;;;;11.77;6.33;;;;;;;0.52;100.00;95338.25;10370275;28;20525;-79
2022/11/23 01:02:22;;;;;;;12.97;6.60;;;;;;;0.48;100.00;95325.75;10368765;28;20231;-78
2022/11/23 01:07:23;;;;;;;12.00;6.60;;;;;;;0.45;100.00;95331.16;10370147;28;20271;-78
2022/11/23 01:12:23;;;;;;;13.93;8.43;;;;;;;0.51;100.00;95335.78;10368987;28;20188;-78
2022/11/23 01:17:23;;;;;;;15.40;7.97;;;;;;;0.45;100.00;95333.72;10369312;28;20226;-77
2022/11/23 01:22:25;;;;;;;14.53;7.93;;;;;;;0.45;100.00;95324.22;10368122;28;20248;-79
2022/11/23 01:27:25;;;;;;;16.53;8.60;;;;;;;0.40;100.00;95338.44;10368186;28;20252;-79
2022/11/23 01:32:25;;;;;;;12.80;7.00;;;;;;;0.41;100.00;95327.19;10367583;28;20232;-78
2022/11/23 01:37:26;;;;;;;13.47;6.20;;;;;;;0.40;100.00;95321.22;10369772;28;20214;-79
2022/11/23 01:42:46;;;;;;;13.70;7.53;;;;;;;0.34;100.00;95317.41;10369634;28;20217;-78
2022/11/23 01:47:47;;;;;;;13.13;6.87;;;;;;;0.25;100.00;95319.94;10368395;28;20197;-78
2022/11/23 01:52:47;;;;;;;13.17;6.97;;;;;;;0.26;100.00;95322.38;10368287;28;20215;-79
2022/11/23 01:57:48;;;;;;;14.90;7.50;;;;;;;0.18;100.00;95324.75;10385052;28;20195;-79
2022/11/23 02:02:57;;;;;;;12.23;6.20;;;;;;;0.23;100.00;95332.09;10366818;28;20279;-79
2022/11/23 02:07:58;;;;;;;9.87;6.07;;;;;;;0.17;100.00;95323.94;10369339;28;20178;-78
2022/11/23 02:13:05;;;;;;;8.77;5.57;;;;;;;0.19;100.00;95328.16;10368149;28;20195;-79
2022/11/23 02:18:17;;;;;;;10.33;5.90;;;;;;;0.09;100.00;95340.97;10369793;28;20654;-79
2022/11/23 02:23:36;;;;;;;8.63;5.47;;;;;;;0.21;100.00;95334.81;10368521;28;20246;-78
2022/11/23 02:28:43;;;;;;;10.10;6.33;;;;;;;0.45;100.00;95336.31;10376464;28;20193;-78
2022/11/23 02:33:43;;;;;;;10.40;5.47;;;;;;;0.63;100.00;95337.34;10378221;28;20300;-79
2022/11/23 02:38:43;;;;;;;12.13;6.10;;;;;;;0.73;100.00;95337.34;10381938;28;20779;-78
2022/11/23 02:43:44;;;;;;;9.97;5.77;;;;;;;0.83;100.00;95334.84;10360052;28;20306;-77
2022/11/23 02:48:44;;;;;;;10.37;6.43;;;;;;;0.90;100.00;95325.59;10373826;28;20196;-78
2022/11/23 02:53:45;;;;;;;10.53;6.07;;;;;;;0.97;100.00;95331.88;10374371;28;20190;-79
2022/11/23 02:58:45;;;;;;;8.70;5.23;;;;;;;1.00;100.00;95344.50;10374650;28;20709;-78
2022/11/23 03:03:46;;;;;;;8.47;5.80;;;;;;;1.05;100.00;95341.53;10374159;28;20652;-78
2022/11/23 03:08:46;;;;;;;7.03;4.93;;;;;;;1.18;100.00;95349.03;10374357;28;20317;-79
2022/11/23 03:13:47;;;;;;;8.30;5.17;;;;;;;1.25;100.00;95347.56;10371763;28;20192;-78
2022/11/23 03:18:47;;;;;;;9.80;4.83;;;;;;;1.19;100.00;95353.25;10374062;28;20192;-78
2022/11/23 03:23:48;;;;;;;6.37;4.27;;;;;;;1.18;100.00;95360.19;10372143;28;20233;-79
2022/11/23 03:28:48;;;;;;;9.53;4.63;;;;;;;1.18;100.00;95356.75;10372046;28;20650;-78
2022/11/23 03:33:50;;;;;;;6.63;4.60;;;;;;;1.19;100.00;95354.06;10371137;28;20250;-78
2022/11/23 03:38:50;;;;;;;7.23;4.30;;;;;;;1.22;100.00;95356.38;10387341;28;20588;-79
2022/11/23 03:44:04;;;;;;;4.90;3.57;;;;;;;1.38;100.00;95358.44;10371261;28;20209;-78
2022/11/23 03:49:04;;;;;;;9.23;4.07;;;;;;;1.37;100.00;95353.44;10370805;28;20188;-79
2022/11/23 03:54:06;;;;;;;6.70;4.40;;;;;;;1.39;100.00;95354.09;10372419;28;20218;-78
2022/11/23 03:59:07;;;;;;;6.53;3.40;;;;;;;1.43;100.00;95360.63;10370757;28;20255;-78
2022/11/23 04:04:07;;;;;;;5.03;3.27;;;;;;;1.46;100.00;95350.03;10407335;28;20250;-79
2022/11/23 04:09:28;;;;;;;6.50;4.23;;;;;;;1.42;100.00;95351.25;10449708;28;20199;-79
2022/11/23 04:14:37;;;;;;;9.30;4.70;;;;;;;1.44;100.00;95344.22;10450007;28;20192;-78
2022/11/23 04:19:45;;;;;;;7.73;3.80;;;;;;;1.55;100.00;95345.84;10450279;28;20630;-78
2022/11/23 04:24:46;;;;;;;5.13;3.40;;;;;;;1.54;100.00;95342.44;10448498;28;20198;-79
2022/11/23 04:29:47;;;;;;;6.73;4.50;;;;;;;1.38;100.00;95350.72;10449924;28;20582;-79
2022/11/23 04:34:47;;;;;;;4.20;3.63;;;;;;;1.51;100.00;95341.91;10447014;28;20253;-78
2022/11/23 04:39:48;;;;;;;6.87;4.10;;;;;;;1.44;100.00;95344.22;10447947;28;20224;-78
2022/11/23 04:44:53;;;;;;;6.63;3.83;;;;;;;1.45;100.00;95342.44;10447067;28;20268;-78
2022/11/23 04:49:54;;;;;;;8.73;4.33;;;;;;;1.38;100.00;95342.97;10448057;28;20190;-78
2022/11/23 04:54:55;;;;;;;5.27;3.63;;;;;;;1.34;100.00;95345.94;10447384;28;20191;-77
2022/11/23 04:59:56;;;;;;;5.03;3.60;;;;;;;1.45;100.00;95350.19;10447275;28;20577;-78
2022/11/23 05:04:58;;;;;;;5.33;3.80;;;;;;;1.35;100.00;95350.97;10450447;28;20199;-77
2022/11/23 05:10:03;;;;;;;5.27;3.63;;;;;;;1.29;100.00;95348.09;10434583;28;20184;-78
2022/11/23 05:15:11;;;;;;;7.57;4.00;;;;;;;1.22;100.00;95352.97;10434261;28;20188;-77
2022/11/23 05:20:12;;;;;;;6.17;3.80;;;;;;;1.11;100.00;95353.09;10433664;28;20215;-78
2022/11/23 05:25:18;;;;;;;4.60;3.60;;;;;;;1.06;100.00;95358.66;10450581;28;20187;-78
2022/11/23 05:30:23;;;;;;;6.97;4.03;;;;;;;0.89;100.00;95360.09;10450209;28;20234;-79
2022/11/23 05:35:24;;;;;;;5.87;3.93;;;;;;;0.76;100.00;95369.81;10449979;28;20206;-80
2022/11/23 05:40:24;;;;;;;7.03;4.40;;;;;;;0.67;100.00;95361.06;10450043;28;20230;-79
2022/11/23 05:45:29;;;;;;;6.17;4.63;;;;;;;0.55;100.00;95373.22;10449907;28;20188;-80
2022/11/23 05:50:31;;;;;;;5.70;4.00;;;;;;;0.65;100.00;95371.50;10450238;28;20204;-79
2022/11/23 05:55:50;;;;;;;6.97;4.40;;;;;;;0.55;100.00;95373.22;10451221;28;20198;-79
2022/11/23 06:00:56;;;;;;;5.97;4.07;;;;;;;0.66;100.00;95370.56;10451397;28;20254;-79
2022/11/23 06:05:56;;;;;;;8.87;4.27;;;;;;;0.65;100.00;95371.50;10458214;28;20842;-80
2022/11/23 06:11:04;;;;;;;5.87;4.00;;;;;;;0.45;100.00;95383.47;10441799;28;20234;-78
2022/11/23 06:16:05;;;;;;;5.70;3.93;;;;;;;0.46;100.00;95384.28;10415452;28;20242;-78
2022/11/23 06:21:16;;;;;;;6.03;3.80;;;;;;;0.56;100.00;95389.50;10415571;28;20226;-78
2022/11/23 06:26:17;;;;;;;6.33;3.93;;;;;;;0.64;100.00;95385.34;10415401;28;20190;-78
2022/11/23 06:31:18;;;;;;;4.83;2.90;;;;;;;0.81;100.00;95396.00;10418378;28;20234;-78
2022/11/23 06:36:19;;;;;;;6.17;3.37;;;;;;;0.93;100.00;95401.88;10411361;28;20218;-79
2022/11/23 06:41:23;;;;;;;7.63;3.30;;;;;;;1.01;100.00;95397.72;10414396;28;20238;-78
2022/11/23 06:46:24;;;;;;;6.47;3.17;;;;;;;1.01;100.00;95395.16;10414271;28;20192;-77
2022/11/23 06:51:24;;;;;;;6.50;3.00;;;;;;;1.11;100.00;95387.44;10411092;28;20552;-78
2022/11/23 06:56:26;;;;;;;6.50;2.80;;;;;;;1.01;100.00;95396.88;10426334;28;20222;-77
2022/11/23 07:01:26;;;;;;;5.33;2.97;;;;;;;0.99;100.00;95402.19;10413931;28;20212;-77
2022/11/23 07:06:32;;;;;;;4.00;2.90;;;;;;;0.96;100.00;95411.94;10389361;28;20193;-78
2022/11/23 07:11:38;;;;;;;4.60;3.23;;;;;;;0.77;100.00;95417.84;10385060;28;20188;-78
2022/11/23 07:16:38;;;;;;;4.37;3.83;;;;;;;0.42;100.00;95419.81;10412639;28;20214;-78
2022/11/23 07:22:14;;;;;;;7.07;3.73;;;;;;;0.24;100.00;95414.38;10412733;28;20218;-78
2022/11/23 07:27:19;;;;;;;7.10;4.20;;;;;;;0.19;100.00;95429.41;10410024;28;20209;-78
2022/11/23 07:32:20;;;;;;;7.57;4.27;;;;;;;0.18;100.00;95432.91;10412121;28;20780;-78
2022/11/23 07:37:20;;;;;;;6.50;3.60;;;;;;;0.33;100.00;95428.28;10412596;28;20270;-78
2022/11/23 07:42:21;;;;;;;6.50;4.07;;;;;;;0.41;100.00;95433.63;10413254;28;20799;-78
2022/11/23 07:47:21;;;;;;;4.93;3.63;;;;;;;0.57;100.00;95435.75;10413785;28;20272;-78
2022/11/23 07:52:21;;;;;;;5.27;3.50;;;;;;;0.74;100.00;95429.22;10411669;28;20198;-78
2022/11/23 07:57:22;;;;;;;4.07;3.27;;;;;;;0.89;100.00;95427.94;10413096;28;20664;-79
2022/11/23 08:02:22;;;;;;;4.30;3.33;;;;;;;1.19;100.00;95428.84;10412680;28;20227;-78
2022/11/23 08:07:23;;;;;;;3.40;3.03;;;;;;;1.37;100.00;95433.41;10412706;28;20699;-78
2022/11/23 08:12:23;;;;;;;4.60;2.80;;;;;;;1.61;100.00;95422.75;10378293;28;20192;-77
2022/11/23 08:17:23;;;;;;;6.63;3.20;;;;;;;1.74;100.00;95423.28;10412484;28;20188;-77
2022/11/23 08:22:25;;;;;;;4.50;3.07;;;;;;;1.71;100.00;95425.31;10412179;28;20209;-78
2022/11/23 08:27:26;;;;;;;3.93;3.20;;;;;;;1.78;100.00;95419.50;10411588;28;20196;-78
2022/11/23 08:32:26;;;;;;;4.73;2.87;;;;;;;1.82;100.00;95420.03;10411174;28;20233;-78
2022/11/23 08:37:26;;;;;;;5.37;3.20;;;;;;;2.05;100.00;95409.44;10410059;28;20681;-78
2022/11/23 08:42:27;;;;;;;5.33;3.77;;;;;;;2.25;100.00;95407.66;10410842;28;20220;-78
2022/11/23 08:47:27;;;;;;;6.73;3.63;;;;;;;2.39;100.00;95411.59;10411612;28;20192;-78
2022/11/23 08:52:28;;;;;;;5.43;3.07;;;;;;;2.58;100.00;95411.56;10409420;28;20691;-78
2022/11/23 08:57:28;;;;;;;6.37;4.00;;;;;;;2.56;100.00;95407.47;10410770;28;20193;-78
2022/11/23 09:02:28;;;;;;;8.03;4.00;;;;;;;2.83;100.00;95412.75;10410407;28;20551;-78
2022/11/23 09:07:29;;;;;;;7.80;4.60;;;;;;;2.97;100.00;95400.28;10410326;28;20676;-78
2022/11/23 09:12:29;;;;;;;9.50;4.37;;;;;;;2.97;100.00;95405.47;10408942;28;20732;-78
2022/11/23 09:17:31;;;;;;;6.60;4.00;;;;;;;3.05;100.00;95403.00;10410212;28;20257;-78
2022/11/23 09:22:31;;;;;;;10.23;5.73;;;;;;;3.08;100.00;95401.88;10409593;28;20224;-77
2022/11/23 09:27:32;;;;;;;12.83;4.07;;;;;;;3.25;100.00;95408.91;10409970;28;20665;-77
2022/11/23 09:32:32;;;;;;;8.07;5.07;;;;;;;3.42;100.00;95391.00;10409404;28;20229;-78
2022/11/23 09:37:33;;;;;;;20.10;11.47;;;;;;;3.53;100.00;95389.00;10408564;28;21073;-78
2022/11/23 09:42:48;;;;;;;11.70;5.70;;;;;;;3.70;100.00;95387.38;10409314;28;20242;-78
2022/11/23 09:48:01;;;;;;;7.43;4.37;;;;;;;3.95;100.00;95369.50;10409380;28;20234;-78
2022/11/23 09:53:05;;;;;;;8.97;5.27;;;;;;;3.93;100.00;95372.22;10375281;28;20188;-79
2022/11/23 09:58:09;;;;;;;6.03;4.13;;;;;;;4.24;100.00;95358.03;10409667;28;20192;-79
2022/11/23 10:03:14;;;;;;;7.37;4.03;;;;;;;4.66;100.00;95354.78;10407956;28;20705;-78
2022/11/23 10:08:34;;;;;;;7.00;3.90;;;;;;;5.25;100.00;95335.88;10408396;28;20188;-78
2022/11/23 10:13:44;;;;;;;8.60;4.27;;;;;;;5.57;98.32;95329.97;10407680;28;20227;-79
2022/11/23 10:18:53;;;;;;;7.97;4.00;;;;;;;6.17;94.96;95302.91;10407737;28;20203;-79
2022/11/23 10:23:55;;;;;;;5.47;3.40;;;;;;;6.32;92.09;95284.81;10408670;28;20219;-78
2022/11/23 10:28:57;;;;;;;7.10;3.57;;;;;;;6.31;91.51;95285.00;10408743;28;20390;-80
2022/11/23 10:34:12;;;;;;;4.67;3.63;;;;;;;6.62;89.79;95269.50;10406497;28;20560;-79
2022/11/23 10:39:19;;;;;;;7.17;3.10;;;;;;;6.63;87.67;95260.72;10407420;28;20220;-80
2022/11/23 10:44:28;;;;;;;5.53;2.73;;;;;;;6.93;87.75;95263.50;10407144;28;20644;-79
2022/11/23 10:49:31;;;;;;;14.80;7.40;;;;;;;7.56;85.38;95248.66;10412765;28;20295;-80
2022/11/23 10:54:38;;;;;;;12.90;5.90;;;;;;;8.01;82.82;95233.16;10415276;28;20199;-80
2022/11/23 10:59:38;;;;;;;16.33;8.40;;;;;;;8.03;80.46;95208.50;10414661;28;20204;-81
2022/11/23 11:04:39;;;;;;;15.27;7.63;;;;;;;8.39;80.89;95227.88;10413372;28;20202;-81
2022/11/23 11:09:39;;;;;;;6.23;3.00;;;;;;;8.43;78.99;95212.69;10414159;28;20192;-80
2022/11/23 11:14:54;;;;;;;5.60;2.50;;;;;;;9.10;76.15;95191.63;10414651;28;20279;-79
2022/11/23 11:19:54;;;;;;;4.43;2.20;;;;;;;9.80;73.58;95172.75;10413231;28;20638;-78
2022/11/23 11:24:54;;;;;;;6.63;1.83;;;;;;;8.16;74.84;95178.38;10414287;28;20195;-78
2022/11/23 11:30:05;;;;;;;5.10;1.97;;;;;;;8.76;74.84;95200.09;10413854;28;20709;-77
2022/11/23 11:35:13;;;;;;;3.97;1.77;;;;;;;8.92;73.49;95184.19;10413814;28;20195;-78
2022/11/23 11:40:31;;;;;;;3.70;1.73;;;;;;;8.65;73.56;95190.09;10412352;28;20224;-79
2022/11/23 11:45:36;;;;;;;7.17;1.83;;;;;;;8.45;73.53;95175.00;10412383;28;20716;-78
2022/11/23 11:50:46;;;;;;;3.47;1.80;;;;;;;8.78;72.86;95179.03;10412754;28;20846;-79
2022/11/23 11:56:00;;;;;;;2.20;1.47;;;;;;;9.21;71.33;95161.59;10412185;28;20200;-77
2022/11/23 12:01:46;;;;;;;6.80;1.70;;;;;;;7.78;73.31;95178.44;10411019;28;20235;-79
2022/11/23 12:06:53;;;;;;;2.77;1.57;;;;;;;7.54;77.02;95236.81;10413114;28;20216;-79
2022/11/23 12:11:54;;;;;;;4.67;1.63;;;;;;;7.13;77.65;95236.06;10409584;28;20203;-78
2022/11/23 12:17:04;;;;;;;4.07;1.97;;;;;;;7.46;77.91;95235.06;10413041;28;20216;-79
2022/11/23 12:22:31;;;;;;;7.57;1.93;;;;;;;7.51;77.81;95232.75;10413290;28;20219;-79
2022/11/23 12:27:54;;;;;;;5.97;2.67;;;;;;;7.20;78.63;95248.41;10413683;28;20575;-79
2022/11/23 12:33:31;;;;;;;5.30;1.70;;;;;;;7.23;78.65;95245.44;10412903;28;20316;-79
2022/11/23 12:38:53;;;;;;;3.73;1.90;;;;;;;7.48;82.29;95287.81;10412674;28;20342;-79
2022/11/23 12:44:08;;;;;;;3.87;2.30;;;;;;;6.89;85.11;95309.91;10411822;28;20220;-79
2022/11/23 12:49:21;;;;;;;4.83;2.03;;;;;;;6.48;87.21;95330.00;10410411;28;20188;-80
2022/11/23 12:54:39;;;;;;;7.37;2.60;;;;;;;6.06;88.76;95342.22;10411827;28;20227;-80
2022/11/23 13:00:15;;;;;;;3.60;2.40;;;;;;;5.52;92.31;95350.41;10411014;28;20204;-79
2022/11/23 13:05:38;;;;;;;2.70;1.97;;;;;;;5.27;93.89;95359.94;10410966;28;20196;-78
2022/11/23 13:11:07;;;;;;;5.10;2.73;;;;;;;5.20;94.73;95345.94;10410057;28;20188;-78
2022/11/23 13:16:37;;;;;;;6.50;3.00;;;;;;;5.25;95.07;95338.47;10409454;28;20199;-78
2022/11/23 13:21:42;;;;;;;4.33;3.13;;;;;;;5.17;95.61;95342.66;10410913;28;20315;-78
2022/11/23 13:26:42;;;;;;;6.57;3.27;;;;;;;5.07;95.85;95342.00;10409072;28;20200;-78
2022/11/23 13:31:43;;;;;;;9.83;3.33;;;;;;;4.78;97.85;95358.72;10410555;28;20235;-79
2022/11/23 13:36:57;;;;;;;13.03;3.97;;;;;;;4.65;99.52;95366.09;10410452;28;20212;-79
2022/11/23 13:42:00;;;;;;;8.07;3.87;;;;;;;4.59;100.00;95367.53;10410756;28;20309;-79
2022/11/23 13:47:03;;;;;;;10.20;3.80;;;;;;;4.54;100.00;95359.41;10410128;28;20224;-79
2022/11/23 13:52:27;;;;;;;5.83;3.50;;;;;;;4.57;100.00;95355.69;10410435;28;20279;-79
2022/11/23 13:57:28;;;;;;;8.67;4.07;;;;;;;4.70;100.00;95348.31;10409709;28;20204;-78
2022/11/23 14:02:29;;;;;;;7.73;3.77;;;;;;;4.55;100.00;95357.59;10410295;28;20224;-78
2022/11/23 14:07:41;;;;;;;9.80;3.33;;;;;;;4.46;100.00;95349.78;10409939;28;20196;-77
2022/11/23 14:12:56;;;;;;;4.20;2.83;;;;;;;4.35;100.00;95359.59;10409969;28;20189;-78
2022/11/23 14:18:25;;;;;;;10.63;4.00;;;;;;;4.40;100.00;95358.16;10410005;28;20212;-79
2022/11/23 14:24:01;;;;;;;6.43;3.40;;;;;;;4.22;100.00;95365.16;10414232;28;20224;-80
2022/11/23 14:29:02;;;;;;;11.23;4.40;;;;;;;4.24;100.00;95371.84;10416281;28;20192;-78
2022/11/23 14:34:17;;;;;;;8.77;4.60;;;;;;;3.87;100.00;95385.75;10416268;28;20280;-79
2022/11/23 14:39:32;;;;;;;11.27;5.07;;;;;;;3.90;100.00;95380.28;10416602;28;20216;-78
2022/11/23 14:44:33;;;;;;;11.93;6.07;;;;;;;3.83;100.00;95381.03;10415942;28;20745;-78
2022/11/23 14:49:33;;;;;;;12.27;6.23;;;;;;;3.73;100.00;95378.50;10416341;28;20196;-78
2022/11/23 14:54:34;;;;;;;13.03;6.83;;;;;;;3.42;100.00;95393.56;10417284;28;20189;-77
2022/11/23 14:59:38;;;;;;;17.20;6.63;;;;;;;3.22;100.00;95396.25;10417650;28;20196;-79
2022/11/23 15:04:51;;;;;;;12.57;6.90;;;;;;;2.96;100.00;95390.91;10419385;28;20370;-79
2022/11/23 15:10:05;;;;;;;9.57;5.27;;;;;;;2.82;100.00;95395.59;10419760;28;20551;-79
2022/11/23 15:15:25;;;;;;;16.43;8.10;;;;;;;2.62;100.00;95401.75;10418988;28;20193;-79
2022/11/23 15:20:32;;;;;;;35.17;19.53;;;;;;;2.52;100.00;95406.97;10419124;28;20270;-79
2022/11/23 15:25:34;;;;;;;30.17;17.13;;;;;;;2.39;100.00;95409.00;10426487;28;20556;-78
2022/11/23 15:30:36;;;;;;;19.87;11.00;;;;;;;2.28;100.00;95415.16;10422759;28;20287;-78
2022/11/23 15:35:37;;;;;;;125.07;40.93;;;;;;;2.17;100.00;95417.88;10423097;28;20193;-78
2022/11/23 15:40:40;;;;;;;49.80;21.67;;;;;;;2.08;100.00;95419.50;10419444;28;20231;-79
2022/11/23 15:45:44;;;;;;;34.27;18.80;;;;;;;1.96;100.00;95413.66;10424346;28;20198;-79
2022/11/23 15:50:49;;;;;;;22.33;11.40;;;;;;;1.98;100.00;95429.03;10416250;28;20193;-79
2022/11/23 15:55:50;;;;;;;22.03;11.90;;;;;;;1.85;100.00;95426.69;10418545;28;20188;-78
2022/11/23 16:01:10;;;;;;;30.87;18.70;;;;;;;1.68;100.00;95434.16;10415092;28;20223;-78
2022/11/23 16:06:10;;;;;;;27.63;13.23;;;;;;;1.51;100.00;95432.22;10412945;28;20195;-78
2022/11/23 16:11:33;;;;;;;15.50;9.20;;;;;;;1.60;100.00;95434.00;10413661;28;20199;-78
2022/11/23 16:16:39;;;;;;;17.30;10.50;;;;;;;1.60;100.00;95432.22;10411818;28;20989;-78
2022/11/23 16:21:43;;;;;;;19.13;9.23;;;;;;;1.67;100.00;95432.53;10413159;28;20240;-78
2022/11/23 16:26:43;;;;;;;17.67;10.40;;;;;;;1.56;100.00;95433.47;10412158;28;20258;-79
2022/11/23 16:31:59;;;;;;;20.00;10.07;;;;;;;1.46;100.00;95439.56;10411708;28;20354;-80
2022/11/23 16:37:02;;;;;;;17.50;9.87;;;;;;;1.45;100.00;95433.56;10412054;28;20238;-79
2022/11/23 16:42:03;;;;;;;18.63;9.00;;;;;;;1.35;100.00;95441.28;10411159;28;20243;-79
2022/11/23 16:47:24;;;;;;;20.03;10.87;;;;;;;1.25;100.00;95437.84;10411763;28;20188;-79
2022/11/23 16:52:24;;;;;;;22.77;10.47;;;;;;;1.23;100.00;95442.31;10410557;28;20193;-79
2022/11/23 16:57:28;;;;;;;17.73;9.77;;;;;;;1.14;100.00;95435.38;10410296;28;20527;-79
2022/11/23 17:02:28;;;;;;;16.93;9.73;;;;;;;1.06;100.00;95439.41;10409306;28;20227;-78
2022/11/23 17:07:29;;;;;;;17.43;8.93;;;;;;;1.04;100.00;95438.72;10409220;28;20624;-78
2022/11/23 17:12:29;;;;;;;17.13;9.23;;;;;;;1.00;100.00;95427.03;10410420;28;20219;-79
2022/11/23 17:17:30;;;;;;;16.73;8.93;;;;;;;1.02;100.00;95435.44;10376549;28;20202;-79
2022/11/23 17:22:30;;;;;;;17.87;9.73;;;;;;;0.92;100.00;95436.34;10410350;28;20223;-79
2022/11/23 17:27:33;;;;;;;16.13;9.47;;;;;;;0.85;100.00;95436.06;10392524;28;20184;-79
2022/11/23 17:32:33;;;;;;;17.63;9.63;;;;;;;0.80;100.00;95440.78;10397176;28;20752;-78
2022/11/23 17:37:33;;;;;;;23.43;11.33;;;;;;;0.79;100.00;95446.88;10409838;28;20376;-79
2022/11/23 17:49:01;;;;;;;15.87;9.07;;;;;;;0.74;100.00;95455.00;10411638;28;20182;-79
2022/11/23 17:54:01;;;;;;;16.33;9.83;;;;;;;0.81;100.00;95463.03;10410706;28;20187;-78
2022/11/23 17:59:02;;;;;;;22.33;12.43;;;;;;;0.88;100.00;95457.22;10417451;28;20197;-79
2022/11/23 18:04:03;;;;;;;19.20;10.93;;;;;;;0.80;100.00;95461.41;10436635;28;20231;-79
2022/11/23 18:09:04;;;;;;;15.70;9.27;;;;;;;0.77;100.00;95465.03;10459217;28;20201;-79
2022/11/23 18:14:04;;;;;;;14.43;9.07;;;;;;;0.80;100.00;95464.78;10458638;28;20670;-79
2022/11/23 18:19:04;;;;;;;24.50;11.77;;;;;;;0.78;100.00;95465.84;10458922;28;20242;-79
2022/11/23 18:24:07;;;;;;;14.23;8.67;;;;;;;0.71;100.00;95462.97;10426681;28;20210;-78
2022/11/23 18:29:08;;;;;;;27.03;15.07;;;;;;;0.66;100.00;95465.94;10420551;28;20252;-79
2022/11/23 18:34:08;;;;;;;18.60;11.77;;;;;;;0.64;100.00;95465.22;10408603;28;20188;-79
2022/11/23 18:39:08;;;;;;;19.27;10.40;;;;;;;0.61;100.00;95472.41;10415543;28;20211;-78
2022/11/23 18:44:09;;;;;;;15.00;7.23;;;;;;;0.50;100.00;95481.00;10397719;28;20228;-78
2022/11/23 18:49:09;;;;;;;13.60;7.57;;;;;;;0.56;100.00;95477.13;10414821;28;20193;-78
2022/11/23 18:54:10;;;;;;;13.07;7.10;;;;;;;0.55;100.00;95472.91;10415478;28;20279;-78
2022/11/23 18:59:10;;;;;;;11.03;7.40;;;;;;;0.49;100.00;95461.31;10396890;28;20195;-79
2022/11/23 19:04:10;;;;;;;10.77;6.67;;;;;;;0.34;100.00;95463.41;10413771;28;20227;-79
2022/11/23 19:09:13;;;;;;;13.10;6.30;;;;;;;0.29;100.00;95468.09;10397017;28;20192;-79
2022/11/23 19:14:13;;;;;;;12.47;6.83;;;;;;;0.20;100.00;95461.13;10417229;28;20188;-78
2022/11/23 19:19:16;;;;;;;11.93;7.27;;;;;;;0.10;100.00;95476.50;10455900;28;20188;-78
2022/11/23 19:24:16;;;;;;;12.97;7.30;;;;;;;0.02;100.00;95484.84;10456145;28;20217;-78
2022/11/23 19:29:18;;;;;;;12.40;7.07;;;;;;;0.03;100.00;95489.06;10455994;28;20200;-79
2022/11/23 19:34:19;;;;;;;15.33;7.17;;;;;;;-0.02;100.00;95497.13;10454581;28;20183;-78
2022/11/23 19:39:19;;;;;;;11.33;6.13;;;;;;;0.01;100.00;95497.84;10436622;28;20230;-81
2022/11/23 19:44:21;;;;;;;10.97;6.17;;;;;;;0.02;100.00;95507.19;10455354;28;20222;-79
2022/11/23 19:49:23;;;;;;;13.17;6.07;;;;;;;0.08;100.00;95514.44;10454170;28;20773;-79
2022/11/23 19:54:23;;;;;;;9.93;5.77;;;;;;;0.08;100.00;95517.00;10436213;28;20334;-79
2022/11/23 19:59:24;;;;;;;10.23;6.13;;;;;;;-0.02;100.00;95520.28;10435738;28;20260;-79
2022/11/23 20:04:25;;;;;;;14.13;7.60;;;;;;;-0.04;100.00;95521.38;10453244;28;20563;-78
2022/11/23 20:09:26;;;;;;;10.73;5.50;;;;;;;-0.06;100.00;95524.06;10454083;28;20194;-80
2022/11/23 20:14:27;;;;;;;9.13;5.37;;;;;;;-0.02;100.00;95522.06;10452510;28;20195;-79
2022/11/23 20:19:27;;;;;;;10.47;4.50;;;;;;;-0.06;100.00;95524.06;10451932;28;20693;-78
2022/11/23 20:24:27;;;;;;;7.33;4.50;;;;;;;-0.02;100.00;95529.78;10452849;28;20226;-78
2022/11/23 20:29:28;;;;;;;8.13;4.57;;;;;;;-0.19;100.00;95528.53;10452490;28;20243;-78
2022/11/23 20:34:28;;;;;;;12.40;5.27;;;;;;;-0.24;100.00;95523.72;10452460;28;20195;-78
2022/11/23 20:39:32;;;;;;;10.27;5.10;;;;;;;-0.24;100.00;95535.78;10451700;28;20580;-78
2022/11/23 20:44:32;;;;;;;7.07;3.90;;;;;;;-0.19;100.00;95533.66;10451854;28;20712;-79
2022/11/23 20:49:32;;;;;;;9.13;4.83;;;;;;;-0.49;100.00;95542.00;10451719;28;20234;-79
2022/11/23 20:54:33;;;;;;;7.83;4.90;;;;;;;-0.43;100.00;95547.50;10452532;28;20189;-78
2022/11/23 20:59:34;;;;;;;7.67;4.97;;;;;;;-0.28;100.00;95550.63;10451845;28;20188;-78
2022/11/23 21:04:34;;;;;;;8.43;4.77;;;;;;;-0.26;100.00;95553.09;10420730;28;20223;-77
2022/11/23 21:09:34;;;;;;;6.97;4.00;;;;;;;-0.37;100.00;95562.47;10400098;28;20189;-78
2022/11/23 21:14:35;;;;;;;9.03;4.50;;;;;;;-0.31;100.00;95580.94;10411983;28;20185;-78
2022/11/23 21:19:38;;;;;;;8.43;3.77;;;;;;;-0.28;100.00;95568.66;10411232;28;20270;-78
2022/11/23 21:24:39;;;;;;;6.00;3.30;;;;;;;-0.28;100.00;95570.41;10409919;28;20582;-79
2022/11/23 21:29:39;;;;;;;6.63;4.33;;;;;;;-0.29;100.00;95574.75;10392541;28;20739;-78
2022/11/23 21:34:40;;;;;;;6.33;4.10;;;;;;;-0.27;100.00;95582.34;10409648;28;20191;-78
2022/11/23 21:39:40;;;;;;;7.37;4.17;;;;;;;-0.24;100.00;95584.69;10410125;28;20578;-79
2022/11/23 21:44:41;;;;;;;7.03;3.83;;;;;;;-0.23;100.00;95583.72;10410224;28;20212;-77
2022/11/23 21:49:41;;;;;;;8.67;4.40;;;;;;;-0.26;100.00;95583.97;10410454;28;20262;-78
2022/11/23 21:54:42;;;;;;;5.77;4.07;;;;;;;-0.27;100.00;95570.28;10410479;28;20683;-77
2022/11/23 21:59:42;;;;;;;9.40;4.90;;;;;;;-0.15;100.00;95585.72;10393408;28;20206;-79
2022/11/23 22:04:42;;;;;;;8.00;4.93;;;;;;;-0.22;100.00;95587.97;10403417;28;20222;-79
2022/11/23 22:09:43;;;;;;;10.23;5.40;;;;;;;-0.36;100.00;95586.44;10414048;28;20239;-78
2022/11/23 22:14:43;;;;;;;8.57;5.63;;;;;;;-0.31;100.00;95591.22;10415145;28;20199;-78
2022/11/23 22:19:45;;;;;;;9.87;6.53;;;;;;;-0.32;100.00;95607.59;10411236;28;20196;-78
2022/11/23 22:24:45;;;;;;;10.80;5.77;;;;;;;-0.26;100.00;95607.13;10409028;28;20247;-78
2022/11/23 22:29:46;;;;;;;10.13;5.57;;;;;;;-0.19;100.00;95608.31;10408752;28;20768;-77
2022/11/23 22:34:46;;;;;;;12.50;6.13;;;;;;;-0.16;100.00;95613.22;10408696;28;20560;-78
2022/11/23 22:39:46;;;;;;;9.30;5.50;;;;;;;-0.11;100.00;95620.59;10408407;28;20594;-79
2022/11/23 22:44:47;;;;;;;13.90;6.83;;;;;;;-0.05;100.00;95615.78;10413624;28;20216;-79
2022/11/23 22:49:47;;;;;;;13.03;7.17;;;;;;;-0.01;100.00;95624.91;10416338;28;20189;-79
2022/11/23 22:54:47;;;;;;;9.53;5.80;;;;;;;0.03;100.00;95637.53;10416031;28;20205;-79
2022/11/23 22:59:48;;;;;;;13.37;6.13;;;;;;;-0.03;100.00;95642.25;10416070;28;20191;-79
2022/11/23 23:04:48;;;;;;;9.63;5.43;;;;;;;0.02;100.00;95634.16;10415402;28;20276;-78
2022/11/23 23:09:49;;;;;;;9.57;6.07;;;;;;;-0.04;100.00;95635.44;10415317;28;20238;-77
2022/11/23 23:14:49;;;;;;;13.80;5.87;;;;;;;-0.06;100.00;95639.91;10415202;28;20645;-78
2022/11/23 23:19:50;;;;;;;11.97;5.60;;;;;;;-0.09;100.00;95647.84;10397295;28;20192;-79
2022/11/23 23:24:50;;;;;;;7.70;5.17;;;;;;;-0.13;100.00;95643.88;10414349;28;20233;-79
2022/11/23 23:29:51;;;;;;;13.73;6.17;;;;;;;-0.19;100.00;95646.91;10414418;28;20224;-78
2022/11/23 23:34:51;;;;;;;12.10;5.37;;;;;;;-0.19;100.00;95649.50;10414334;28;20186;-78